sensor_id;sensor_type;location;lat;lon;timestamp;P1;durP1;ratioP1;P2;durP2;ratioP2
72524;SDS011;60547;48.502;8.996;2023-05-14T00:01:53;7.15;;;4.68;;
72524;SDS011;60547;48.502;8.996;2023-05-14T00:04:18;7.90;;;4.78;;
72524;SDS011;60547;48.502;8.996;2023-05-14T00:06:44;6.95;;;4.65;;
72524;SDS011;60547;48.502;8.996;2023-05-14T00:09:10;8.15;;;4.30;;
72524;SDS011;60547;48.502;8.996;2023-05-14T00:11:37;6.07;;;3.80;;
72524;SDS011;60547;48.502;8.996;2023-05-14T00:14:02;8.68;;;5.15;;
72524;SDS011;60547;48.502;8.996;2023-05-14T00:16:28;8.68;;;4.80;;
72524;SDS011;60547;48.502;8.996;2023-05-14T00:18:53;6.80;;;4.80;;
72524;SDS011;60547;48.502;8.996;2023-05-14T00:21:19;6.72;;;4.47;;
72524;SDS011;60547;48.502;8.996;2023-05-14T00:23:44;8.13;;;4.85;;
72524;SDS011;60547;48.502;8.996;2023-05-14T00:26:10;7.18;;;4.32;;
72524;SDS011;60547;48.502;8.996;2023-05-14T00:28:36;7.65;;;4.63;;
72524;SDS011;60547;48.502;8.996;2023-05-14T00:31:01;6.75;;;4.40;;
72524;SDS011;60547;48.502;8.996;2023-05-14T00:33:27;8.25;;;4.82;;
72524;SDS011;60547;48.502;8.996;2023-05-14T00:35:52;8.43;;;4.22;;
72524;SDS011;60547;48.502;8.996;2023-05-14T00:38:17;8.63;;;4.32;;
72524;SDS011;60547;48.502;8.996;2023-05-14T00:40:44;8.60;;;4.90;;
72524;SDS011;60547;48.502;8.996;2023-05-14T00:43:16;7.15;;;4.60;;
72524;SDS011;60547;48.502;8.996;2023-05-14T00:45:42;6.68;;;4.32;;
72524;SDS011;60547;48.502;8.996;2023-05-14T00:48:09;9.85;;;4.93;;
72524;SDS011;60547;48.502;8.996;2023-05-14T00:50:34;6.50;;;4.90;;
72524;SDS011;60547;48.502;8.996;2023-05-14T00:53:00;7.13;;;4.93;;
72524;SDS011;60547;48.502;8.996;2023-05-14T00:55:26;7.75;;;5.03;;
72524;SDS011;60547;48.502;8.996;2023-05-14T00:57:54;7.68;;;5.10;;
72524;SDS011;60547;48.502;8.996;2023-05-14T01:00:22;7.60;;;5.20;;
72524;SDS011;60547;48.502;8.996;2023-05-14T01:02:47;7.30;;;5.53;;
72524;SDS011;60547;48.502;8.996;2023-05-14T01:05:13;7.90;;;5.10;;
72524;SDS011;60547;48.502;8.996;2023-05-14T01:07:54;7.80;;;4.90;;
72524;SDS011;60547;48.502;8.996;2023-05-14T01:11:11;7.28;;;4.80;;
72524;SDS011;60547;48.502;8.996;2023-05-14T01:16:19;7.85;;;4.90;;
72524;SDS011;60547;48.502;8.996;2023-05-14T01:18:47;8.00;;;5.13;;
72524;SDS011;60547;48.502;8.996;2023-05-14T01:24:04;8.48;;;5.35;;
72524;SDS011;60547;48.502;8.996;2023-05-14T01:26:30;9.40;;;5.65;;
72524;SDS011;60547;48.502;8.996;2023-05-14T01:29:00;8.43;;;5.15;;
72524;SDS011;60547;48.502;8.996;2023-05-14T01:31:32;7.50;;;5.15;;
72524;SDS011;60547;48.502;8.996;2023-05-14T01:34:02;7.55;;;5.22;;
72524;SDS011;60547;48.502;8.996;2023-05-14T01:36:29;9.65;;;6.15;;
72524;SDS011;60547;48.502;8.996;2023-05-14T01:38:57;7.43;;;5.28;;
72524;SDS011;60547;48.502;8.996;2023-05-14T01:41:24;8.60;;;5.32;;
72524;SDS011;60547;48.502;8.996;2023-05-14T01:43:50;9.30;;;5.55;;
72524;SDS011;60547;48.502;8.996;2023-05-14T01:46:18;8.15;;;5.13;;
72524;SDS011;60547;48.502;8.996;2023-05-14T01:48:44;8.27;;;5.45;;
72524;SDS011;60547;48.502;8.996;2023-05-14T01:51:10;8.10;;;5.22;;
72524;SDS011;60547;48.502;8.996;2023-05-14T01:53:35;7.13;;;4.50;;
72524;SDS011;60547;48.502;8.996;2023-05-14T01:56:01;8.38;;;4.97;;
72524;SDS011;60547;48.502;8.996;2023-05-14T01:58:26;8.00;;;4.90;;
72524;SDS011;60547;48.502;8.996;2023-05-14T02:00:52;7.60;;;5.10;;
72524;SDS011;60547;48.502;8.996;2023-05-14T02:03:17;7.78;;;4.63;;
72524;SDS011;60547;48.502;8.996;2023-05-14T02:05:42;7.53;;;4.90;;
72524;SDS011;60547;48.502;8.996;2023-05-14T02:08:08;7.60;;;4.88;;
72524;SDS011;60547;48.502;8.996;2023-05-14T02:10:33;9.32;;;5.93;;
72524;SDS011;60547;48.502;8.996;2023-05-14T02:12:59;8.15;;;5.20;;
72524;SDS011;60547;48.502;8.996;2023-05-14T02:15:24;7.38;;;5.20;;
72524;SDS011;60547;48.502;8.996;2023-05-14T02:17:50;7.63;;;4.93;;
72524;SDS011;60547;48.502;8.996;2023-05-14T02:20:15;8.35;;;5.53;;
72524;SDS011;60547;48.502;8.996;2023-05-14T02:22:41;8.32;;;5.40;;
72524;SDS011;60547;48.502;8.996;2023-05-14T02:25:09;7.65;;;5.15;;
72524;SDS011;60547;48.502;8.996;2023-05-14T02:27:35;8.38;;;5.43;;
72524;SDS011;60547;48.502;8.996;2023-05-14T02:30:01;8.52;;;5.30;;
72524;SDS011;60547;48.502;8.996;2023-05-14T02:32:27;7.38;;;4.88;;
72524;SDS011;60547;48.502;8.996;2023-05-14T02:34:52;7.75;;;5.13;;
72524;SDS011;60547;48.502;8.996;2023-05-14T02:37:18;7.85;;;5.13;;
72524;SDS011;60547;48.502;8.996;2023-05-14T02:39:43;7.90;;;4.90;;
72524;SDS011;60547;48.502;8.996;2023-05-14T02:42:09;7.30;;;4.60;;
72524;SDS011;60547;48.502;8.996;2023-05-14T02:44:34;8.80;;;5.00;;
72524;SDS011;60547;48.502;8.996;2023-05-14T02:47:00;8.10;;;4.95;;
72524;SDS011;60547;48.502;8.996;2023-05-14T02:49:25;7.93;;;4.90;;
72524;SDS011;60547;48.502;8.996;2023-05-14T02:51:51;7.57;;;4.95;;
72524;SDS011;60547;48.502;8.996;2023-05-14T02:54:18;8.05;;;5.28;;
72524;SDS011;60547;48.502;8.996;2023-05-14T02:56:43;7.05;;;4.80;;
72524;SDS011;60547;48.502;8.996;2023-05-14T02:59:09;5.78;;;4.60;;
72524;SDS011;60547;48.502;8.996;2023-05-14T03:01:35;10.77;;;5.20;;
72524;SDS011;60547;48.502;8.996;2023-05-14T03:04:00;7.88;;;4.88;;
72524;SDS011;60547;48.502;8.996;2023-05-14T03:06:25;8.35;;;5.22;;
72524;SDS011;60547;48.502;8.996;2023-05-14T03:08:51;8.10;;;5.35;;
72524;SDS011;60547;48.502;8.996;2023-05-14T03:11:16;7.60;;;5.07;;
72524;SDS011;60547;48.502;8.996;2023-05-14T03:13:42;7.70;;;5.40;;
72524;SDS011;60547;48.502;8.996;2023-05-14T03:16:07;7.72;;;4.90;;
72524;SDS011;60547;48.502;8.996;2023-05-14T03:18:33;7.07;;;5.03;;
72524;SDS011;60547;48.502;8.996;2023-05-14T03:21:00;8.27;;;5.53;;
72524;SDS011;60547;48.502;8.996;2023-05-14T03:23:27;8.18;;;5.10;;
72524;SDS011;60547;48.502;8.996;2023-05-14T03:25:53;8.38;;;4.95;;
72524;SDS011;60547;48.502;8.996;2023-05-14T03:28:18;7.80;;;4.90;;
72524;SDS011;60547;48.502;8.996;2023-05-14T03:30:44;8.93;;;5.00;;
72524;SDS011;60547;48.502;8.996;2023-05-14T03:33:09;7.70;;;4.85;;
72524;SDS011;60547;48.502;8.996;2023-05-14T03:35:35;7.20;;;5.05;;
72524;SDS011;60547;48.502;8.996;2023-05-14T03:38:01;8.02;;;4.88;;
72524;SDS011;60547;48.502;8.996;2023-05-14T03:40:26;9.30;;;5.20;;
72524;SDS011;60547;48.502;8.996;2023-05-14T03:42:52;8.73;;;5.22;;
72524;SDS011;60547;48.502;8.996;2023-05-14T03:45:17;7.20;;;4.70;;
72524;SDS011;60547;48.502;8.996;2023-05-14T03:47:43;7.40;;;4.90;;
72524;SDS011;60547;48.502;8.996;2023-05-14T03:50:08;9.57;;;5.03;;
72524;SDS011;60547;48.502;8.996;2023-05-14T03:52:34;7.65;;;5.43;;
72524;SDS011;60547;48.502;8.996;2023-05-14T03:54:59;9.98;;;4.95;;
72524;SDS011;60547;48.502;8.996;2023-05-14T03:57:25;8.45;;;4.97;;
72524;SDS011;60547;48.502;8.996;2023-05-14T03:59:50;8.88;;;5.93;;
72524;SDS011;60547;48.502;8.996;2023-05-14T04:02:16;8.93;;;5.57;;
72524;SDS011;60547;48.502;8.996;2023-05-14T04:04:41;9.38;;;6.15;;
72524;SDS011;60547;48.502;8.996;2023-05-14T04:07:07;10.93;;;6.57;;
72524;SDS011;60547;48.502;8.996;2023-05-14T04:09:33;10.82;;;6.07;;
72524;SDS011;60547;48.502;8.996;2023-05-14T04:11:58;7.75;;;5.03;;
72524;SDS011;60547;48.502;8.996;2023-05-14T04:14:24;8.07;;;5.78;;
72524;SDS011;60547;48.502;8.996;2023-05-14T04:16:49;8.63;;;5.55;;
72524;SDS011;60547;48.502;8.996;2023-05-14T04:19:15;8.32;;;5.80;;
72524;SDS011;60547;48.502;8.996;2023-05-14T04:21:40;10.85;;;5.90;;
72524;SDS011;60547;48.502;8.996;2023-05-14T04:24:06;9.90;;;5.72;;
72524;SDS011;60547;48.502;8.996;2023-05-14T04:26:31;8.77;;;5.65;;
72524;SDS011;60547;48.502;8.996;2023-05-14T04:28:57;7.85;;;5.90;;
72524;SDS011;60547;48.502;8.996;2023-05-14T04:31:27;8.30;;;5.85;;
72524;SDS011;60547;48.502;8.996;2023-05-14T04:33:52;10.93;;;6.55;;
72524;SDS011;60547;48.502;8.996;2023-05-14T04:36:18;8.52;;;5.82;;
72524;SDS011;60547;48.502;8.996;2023-05-14T04:38:43;9.48;;;6.05;;
72524;SDS011;60547;48.502;8.996;2023-05-14T04:41:09;7.78;;;5.82;;
72524;SDS011;60547;48.502;8.996;2023-05-14T04:43:35;9.80;;;5.90;;
72524;SDS011;60547;48.502;8.996;2023-05-14T04:46:00;8.95;;;5.50;;
72524;SDS011;60547;48.502;8.996;2023-05-14T04:48:26;8.63;;;5.85;;
72524;SDS011;60547;48.502;8.996;2023-05-14T04:50:51;11.65;;;6.15;;
72524;SDS011;60547;48.502;8.996;2023-05-14T04:53:17;9.60;;;5.60;;
72524;SDS011;60547;48.502;8.996;2023-05-14T04:55:42;11.77;;;6.60;;
72524;SDS011;60547;48.502;8.996;2023-05-14T04:58:08;40.10;;;19.08;;
72524;SDS011;60547;48.502;8.996;2023-05-14T05:00:33;106.63;;;51.58;;
72524;SDS011;60547;48.502;8.996;2023-05-14T05:02:59;75.18;;;36.88;;
72524;SDS011;60547;48.502;8.996;2023-05-14T05:05:25;20.27;;;11.43;;
72524;SDS011;60547;48.502;8.996;2023-05-14T05:07:50;11.07;;;6.80;;
72524;SDS011;60547;48.502;8.996;2023-05-14T05:10:16;10.48;;;6.00;;
72524;SDS011;60547;48.502;8.996;2023-05-14T05:12:42;10.35;;;6.35;;
72524;SDS011;60547;48.502;8.996;2023-05-14T05:15:08;9.63;;;6.35;;
72524;SDS011;60547;48.502;8.996;2023-05-14T05:17:34;8.48;;;5.50;;
72524;SDS011;60547;48.502;8.996;2023-05-14T05:20:01;8.90;;;5.60;;
72524;SDS011;60547;48.502;8.996;2023-05-14T05:22:29;7.90;;;5.70;;
72524;SDS011;60547;48.502;8.996;2023-05-14T05:24:57;9.45;;;6.50;;
72524;SDS011;60547;48.502;8.996;2023-05-14T05:27:24;9.98;;;6.00;;
72524;SDS011;60547;48.502;8.996;2023-05-14T05:29:50;8.68;;;6.10;;
72524;SDS011;60547;48.502;8.996;2023-05-14T05:32:16;8.93;;;5.88;;
72524;SDS011;60547;48.502;8.996;2023-05-14T05:34:41;8.82;;;5.72;;
72524;SDS011;60547;48.502;8.996;2023-05-14T05:37:07;8.45;;;5.72;;
72524;SDS011;60547;48.502;8.996;2023-05-14T05:39:37;9.38;;;6.07;;
72524;SDS011;60547;48.502;8.996;2023-05-14T05:42:04;9.40;;;5.72;;
72524;SDS011;60547;48.502;8.996;2023-05-14T05:44:30;9.05;;;5.85;;
72524;SDS011;60547;48.502;8.996;2023-05-14T05:46:55;9.35;;;5.70;;
72524;SDS011;60547;48.502;8.996;2023-05-14T05:49:21;8.02;;;5.75;;
72524;SDS011;60547;48.502;8.996;2023-05-14T05:51:47;8.05;;;5.65;;
72524;SDS011;60547;48.502;8.996;2023-05-14T05:54:13;8.63;;;5.90;;
72524;SDS011;60547;48.502;8.996;2023-05-14T05:56:39;9.30;;;6.35;;
72524;SDS011;60547;48.502;8.996;2023-05-14T05:59:05;9.35;;;6.05;;
72524;SDS011;60547;48.502;8.996;2023-05-14T06:01:30;10.50;;;6.38;;
72524;SDS011;60547;48.502;8.996;2023-05-14T06:03:56;10.32;;;6.30;;
72524;SDS011;60547;48.502;8.996;2023-05-14T06:06:22;9.30;;;6.15;;
72524;SDS011;60547;48.502;8.996;2023-05-14T06:08:48;8.60;;;6.07;;
72524;SDS011;60547;48.502;8.996;2023-05-14T06:11:14;9.30;;;6.00;;
72524;SDS011;60547;48.502;8.996;2023-05-14T06:13:41;10.68;;;6.50;;
72524;SDS011;60547;48.502;8.996;2023-05-14T06:16:06;10.15;;;6.05;;
72524;SDS011;60547;48.502;8.996;2023-05-14T06:18:39;9.48;;;5.95;;
72524;SDS011;60547;48.502;8.996;2023-05-14T06:21:05;8.15;;;6.00;;
72524;SDS011;60547;48.502;8.996;2023-05-14T06:23:31;9.18;;;6.35;;
72524;SDS011;60547;48.502;8.996;2023-05-14T06:25:56;10.25;;;6.22;;
72524;SDS011;60547;48.502;8.996;2023-05-14T06:28:22;11.32;;;6.07;;
72524;SDS011;60547;48.502;8.996;2023-05-14T06:30:51;10.15;;;6.22;;
72524;SDS011;60547;48.502;8.996;2023-05-14T06:36:58;9.63;;;6.18;;
72524;SDS011;60547;48.502;8.996;2023-05-14T06:39:26;9.88;;;6.25;;
72524;SDS011;60547;48.502;8.996;2023-05-14T06:41:52;11.93;;;6.60;;
72524;SDS011;60547;48.502;8.996;2023-05-14T06:44:18;9.55;;;6.70;;
72524;SDS011;60547;48.502;8.996;2023-05-14T06:46:43;10.00;;;6.82;;
72524;SDS011;60547;48.502;8.996;2023-05-14T06:49:09;9.93;;;6.25;;
72524;SDS011;60547;48.502;8.996;2023-05-14T06:51:34;11.65;;;7.00;;
72524;SDS011;60547;48.502;8.996;2023-05-14T06:54:00;9.02;;;6.20;;
72524;SDS011;60547;48.502;8.996;2023-05-14T07:00:06;9.35;;;6.47;;
72524;SDS011;60547;48.502;8.996;2023-05-14T07:02:32;10.95;;;6.63;;
72524;SDS011;60547;48.502;8.996;2023-05-14T07:04:58;10.10;;;6.90;;
72524;SDS011;60547;48.502;8.996;2023-05-14T07:07:24;10.75;;;7.20;;
72524;SDS011;60547;48.502;8.996;2023-05-14T07:09:49;9.75;;;6.45;;
72524;SDS011;60547;48.502;8.996;2023-05-14T07:12:15;10.10;;;6.70;;
72524;SDS011;60547;48.502;8.996;2023-05-14T07:14:41;10.15;;;6.68;;
72524;SDS011;60547;48.502;8.996;2023-05-14T07:17:06;10.68;;;7.03;;
72524;SDS011;60547;48.502;8.996;2023-05-14T07:19:32;10.00;;;6.78;;
72524;SDS011;60547;48.502;8.996;2023-05-14T07:21:58;11.82;;;6.53;;
72524;SDS011;60547;48.502;8.996;2023-05-14T07:24:23;13.38;;;7.07;;
72524;SDS011;60547;48.502;8.996;2023-05-14T07:26:49;9.50;;;6.85;;
72524;SDS011;60547;48.502;8.996;2023-05-14T07:29:15;10.48;;;6.90;;
72524;SDS011;60547;48.502;8.996;2023-05-14T07:31:41;12.23;;;6.82;;
72524;SDS011;60547;48.502;8.996;2023-05-14T07:34:06;10.02;;;6.57;;
72524;SDS011;60547;48.502;8.996;2023-05-14T07:36:33;10.07;;;6.70;;
72524;SDS011;60547;48.502;8.996;2023-05-14T07:38:59;11.70;;;7.00;;
72524;SDS011;60547;48.502;8.996;2023-05-14T07:41:24;11.13;;;7.05;;
72524;SDS011;60547;48.502;8.996;2023-05-14T07:43:50;11.20;;;7.30;;
72524;SDS011;60547;48.502;8.996;2023-05-14T07:46:16;10.57;;;6.47;;
72524;SDS011;60547;48.502;8.996;2023-05-14T07:48:41;11.98;;;7.00;;
72524;SDS011;60547;48.502;8.996;2023-05-14T07:51:07;11.35;;;7.45;;
72524;SDS011;60547;48.502;8.996;2023-05-14T07:53:33;11.98;;;6.65;;
72524;SDS011;60547;48.502;8.996;2023-05-14T07:55:58;12.52;;;6.90;;
72524;SDS011;60547;48.502;8.996;2023-05-14T07:58:24;11.05;;;7.57;;
72524;SDS011;60547;48.502;8.996;2023-05-14T08:00:52;11.10;;;6.97;;
72524;SDS011;60547;48.502;8.996;2023-05-14T08:03:17;9.88;;;7.03;;
72524;SDS011;60547;48.502;8.996;2023-05-14T08:05:43;9.93;;;6.90;;
72524;SDS011;60547;48.502;8.996;2023-05-14T08:08:09;11.90;;;7.50;;
72524;SDS011;60547;48.502;8.996;2023-05-14T08:10:34;11.02;;;6.70;;
72524;SDS011;60547;48.502;8.996;2023-05-14T08:13:00;11.52;;;7.38;;
72524;SDS011;60547;48.502;8.996;2023-05-14T08:15:26;11.38;;;6.57;;
72524;SDS011;60547;48.502;8.996;2023-05-14T08:17:52;11.45;;;6.90;;
72524;SDS011;60547;48.502;8.996;2023-05-14T08:20:17;10.63;;;6.75;;
72524;SDS011;60547;48.502;8.996;2023-05-14T08:22:43;10.02;;;6.63;;
72524;SDS011;60547;48.502;8.996;2023-05-14T08:25:09;10.63;;;6.95;;
72524;SDS011;60547;48.502;8.996;2023-05-14T08:27:35;12.05;;;7.20;;
72524;SDS011;60547;48.502;8.996;2023-05-14T08:30:01;11.90;;;7.53;;
72524;SDS011;60547;48.502;8.996;2023-05-14T08:32:26;11.48;;;7.50;;
72524;SDS011;60547;48.502;8.996;2023-05-14T08:34:52;12.10;;;7.28;;
72524;SDS011;60547;48.502;8.996;2023-05-14T08:37:18;9.95;;;6.82;;
72524;SDS011;60547;48.502;8.996;2023-05-14T08:39:43;11.45;;;7.45;;
72524;SDS011;60547;48.502;8.996;2023-05-14T08:42:11;11.75;;;7.10;;
72524;SDS011;60547;48.502;8.996;2023-05-14T08:44:38;12.15;;;7.40;;
72524;SDS011;60547;48.502;8.996;2023-05-14T08:47:16;11.55;;;7.10;;
72524;SDS011;60547;48.502;8.996;2023-05-14T08:49:46;11.55;;;7.47;;
72524;SDS011;60547;48.502;8.996;2023-05-14T08:52:14;10.95;;;7.28;;
72524;SDS011;60547;48.502;8.996;2023-05-14T08:54:42;11.90;;;6.70;;
72524;SDS011;60547;48.502;8.996;2023-05-14T08:57:11;11.68;;;7.05;;
72524;SDS011;60547;48.502;8.996;2023-05-14T08:59:37;11.48;;;7.22;;
72524;SDS011;60547;48.502;8.996;2023-05-14T09:02:03;10.63;;;6.72;;
72524;SDS011;60547;48.502;8.996;2023-05-14T09:04:30;10.50;;;6.60;;
72524;SDS011;60547;48.502;8.996;2023-05-14T09:07:00;10.60;;;7.65;;
72524;SDS011;60547;48.502;8.996;2023-05-14T09:09:26;10.60;;;6.53;;
72524;SDS011;60547;48.502;8.996;2023-05-14T09:11:52;11.02;;;7.53;;
72524;SDS011;60547;48.502;8.996;2023-05-14T09:14:18;10.52;;;6.78;;
72524;SDS011;60547;48.502;8.996;2023-05-14T09:16:45;11.45;;;7.75;;
72524;SDS011;60547;48.502;8.996;2023-05-14T09:19:12;10.00;;;6.95;;
72524;SDS011;60547;48.502;8.996;2023-05-14T09:21:40;11.93;;;7.22;;
72524;SDS011;60547;48.502;8.996;2023-05-14T09:24:06;11.32;;;7.25;;
72524;SDS011;60547;48.502;8.996;2023-05-14T09:26:33;10.23;;;7.15;;
72524;SDS011;60547;48.502;8.996;2023-05-14T09:29:00;11.48;;;7.65;;
72524;SDS011;60547;48.502;8.996;2023-05-14T09:31:27;11.52;;;7.45;;
72524;SDS011;60547;48.502;8.996;2023-05-14T09:33:54;10.75;;;7.22;;
72524;SDS011;60547;48.502;8.996;2023-05-14T09:36:20;12.10;;;7.07;;
72524;SDS011;60547;48.502;8.996;2023-05-14T09:38:46;13.07;;;7.68;;
72524;SDS011;60547;48.502;8.996;2023-05-14T09:41:11;11.38;;;7.45;;
72524;SDS011;60547;48.502;8.996;2023-05-14T09:43:37;11.32;;;7.60;;
72524;SDS011;60547;48.502;8.996;2023-05-14T09:46:03;11.18;;;7.05;;
72524;SDS011;60547;48.502;8.996;2023-05-14T09:48:29;10.75;;;7.25;;
72524;SDS011;60547;48.502;8.996;2023-05-14T09:50:55;10.60;;;6.85;;
72524;SDS011;60547;48.502;8.996;2023-05-14T09:53:20;10.52;;;7.20;;
72524;SDS011;60547;48.502;8.996;2023-05-14T09:55:46;12.05;;;7.45;;
72524;SDS011;60547;48.502;8.996;2023-05-14T09:58:12;10.82;;;7.50;;
72524;SDS011;60547;48.502;8.996;2023-05-14T10:00:38;10.50;;;7.20;;
72524;SDS011;60547;48.502;8.996;2023-05-14T10:03:09;10.73;;;7.30;;
72524;SDS011;60547;48.502;8.996;2023-05-14T10:05:38;11.27;;;7.13;;
72524;SDS011;60547;48.502;8.996;2023-05-14T10:08:12;10.88;;;7.32;;
72524;SDS011;60547;48.502;8.996;2023-05-14T10:10:42;10.20;;;6.88;;
72524;SDS011;60547;48.502;8.996;2023-05-14T10:13:10;12.52;;;7.82;;
72524;SDS011;60547;48.502;8.996;2023-05-14T10:15:39;10.25;;;7.25;;
72524;SDS011;60547;48.502;8.996;2023-05-14T10:18:15;9.95;;;7.22;;
72524;SDS011;60547;48.502;8.996;2023-05-14T10:20:46;11.05;;;7.22;;
72524;SDS011;60547;48.502;8.996;2023-05-14T10:23:17;11.00;;;7.20;;
72524;SDS011;60547;48.502;8.996;2023-05-14T10:25:43;11.18;;;6.93;;
72524;SDS011;60547;48.502;8.996;2023-05-14T10:28:10;12.70;;;8.25;;
72524;SDS011;60547;48.502;8.996;2023-05-14T10:30:40;9.70;;;6.43;;
72524;SDS011;60547;48.502;8.996;2023-05-14T10:33:10;11.20;;;6.88;;
72524;SDS011;60547;48.502;8.996;2023-05-14T10:35:57;9.82;;;7.07;;
72524;SDS011;60547;48.502;8.996;2023-05-14T10:38:29;10.18;;;6.47;;
72524;SDS011;60547;48.502;8.996;2023-05-14T10:40:58;9.95;;;6.07;;
72524;SDS011;60547;48.502;8.996;2023-05-14T10:43:25;7.82;;;5.60;;
72524;SDS011;60547;48.502;8.996;2023-05-14T10:45:54;7.72;;;5.38;;
72524;SDS011;60547;48.502;8.996;2023-05-14T10:48:20;8.63;;;5.40;;
72524;SDS011;60547;48.502;8.996;2023-05-14T10:50:46;7.55;;;5.32;;
72524;SDS011;60547;48.502;8.996;2023-05-14T10:53:13;7.10;;;5.47;;
72524;SDS011;60547;48.502;8.996;2023-05-14T10:55:41;13.13;;;5.68;;
72524;SDS011;60547;48.502;8.996;2023-05-14T10:58:06;7.65;;;5.20;;
72524;SDS011;60547;48.502;8.996;2023-05-14T11:00:34;7.53;;;5.15;;
72524;SDS011;60547;48.502;8.996;2023-05-14T11:03:02;6.55;;;5.07;;
72524;SDS011;60547;48.502;8.996;2023-05-14T11:05:29;6.60;;;4.47;;
72524;SDS011;60547;48.502;8.996;2023-05-14T11:07:56;8.57;;;5.15;;
72524;SDS011;60547;48.502;8.996;2023-05-14T11:10:22;8.73;;;5.03;;
72524;SDS011;60547;48.502;8.996;2023-05-14T11:12:50;7.93;;;5.03;;
72524;SDS011;60547;48.502;8.996;2023-05-14T11:15:20;7.10;;;5.05;;
72524;SDS011;60547;48.502;8.996;2023-05-14T11:17:47;6.75;;;4.63;;
72524;SDS011;60547;48.502;8.996;2023-05-14T11:20:14;7.13;;;4.50;;
72524;SDS011;60547;48.502;8.996;2023-05-14T11:22:43;6.82;;;4.63;;
72524;SDS011;60547;48.502;8.996;2023-05-14T11:25:10;7.32;;;4.82;;
72524;SDS011;60547;48.502;8.996;2023-05-14T11:27:38;6.15;;;4.53;;
72524;SDS011;60547;48.502;8.996;2023-05-14T11:30:15;6.97;;;4.30;;
72524;SDS011;60547;48.502;8.996;2023-05-14T11:32:44;5.95;;;4.07;;
72524;SDS011;60547;48.502;8.996;2023-05-14T11:35:11;7.13;;;4.47;;
72524;SDS011;60547;48.502;8.996;2023-05-14T11:37:37;6.45;;;4.38;;
72524;SDS011;60547;48.502;8.996;2023-05-14T11:40:06;5.55;;;3.40;;
72524;SDS011;60547;48.502;8.996;2023-05-14T11:42:36;5.65;;;3.42;;
72524;SDS011;60547;48.502;8.996;2023-05-14T11:45:03;5.60;;;3.75;;
72524;SDS011;60547;48.502;8.996;2023-05-14T11:47:29;5.20;;;3.15;;
72524;SDS011;60547;48.502;8.996;2023-05-14T11:49:55;5.30;;;3.00;;
72524;SDS011;60547;48.502;8.996;2023-05-14T11:52:21;5.60;;;4.30;;
72524;SDS011;60547;48.502;8.996;2023-05-14T11:54:47;5.28;;;3.83;;
72524;SDS011;60547;48.502;8.996;2023-05-14T11:57:17;6.00;;;3.97;;
72524;SDS011;60547;48.502;8.996;2023-05-14T11:59:44;6.60;;;3.28;;
72524;SDS011;60547;48.502;8.996;2023-05-14T12:02:11;4.90;;;3.17;;
72524;SDS011;60547;48.502;8.996;2023-05-14T12:04:37;6.05;;;3.50;;
72524;SDS011;60547;48.502;8.996;2023-05-14T12:07:08;5.10;;;3.33;;
72524;SDS011;60547;48.502;8.996;2023-05-14T12:09:40;6.10;;;3.55;;
72524;SDS011;60547;48.502;8.996;2023-05-14T12:12:08;5.72;;;3.33;;
72524;SDS011;60547;48.502;8.996;2023-05-14T12:14:36;4.85;;;3.05;;
72524;SDS011;60547;48.502;8.996;2023-05-14T12:17:19;5.25;;;3.63;;
72524;SDS011;60547;48.502;8.996;2023-05-14T12:19:47;6.03;;;3.58;;
72524;SDS011;60547;48.502;8.996;2023-05-14T12:22:18;5.35;;;3.72;;
72524;SDS011;60547;48.502;8.996;2023-05-14T12:24:56;4.95;;;3.15;;
72524;SDS011;60547;48.502;8.996;2023-05-14T12:27:23;5.60;;;3.22;;
72524;SDS011;60547;48.502;8.996;2023-05-14T12:30:03;6.95;;;3.75;;
72524;SDS011;60547;48.502;8.996;2023-05-14T12:32:30;4.80;;;3.15;;
72524;SDS011;60547;48.502;8.996;2023-05-14T12:34:57;5.45;;;3.40;;
72524;SDS011;60547;48.502;8.996;2023-05-14T12:37:23;5.50;;;3.38;;
72524;SDS011;60547;48.502;8.996;2023-05-14T12:39:49;5.20;;;3.25;;
72524;SDS011;60547;48.502;8.996;2023-05-14T12:42:14;5.80;;;3.53;;
72524;SDS011;60547;48.502;8.996;2023-05-14T12:44:40;5.15;;;3.20;;
72524;SDS011;60547;48.502;8.996;2023-05-14T12:47:06;4.95;;;3.15;;
72524;SDS011;60547;48.502;8.996;2023-05-14T12:49:32;5.07;;;3.50;;
72524;SDS011;60547;48.502;8.996;2023-05-14T12:51:58;5.55;;;3.55;;
72524;SDS011;60547;48.502;8.996;2023-05-14T12:54:23;5.95;;;3.53;;
72524;SDS011;60547;48.502;8.996;2023-05-14T12:56:49;5.82;;;3.63;;
72524;SDS011;60547;48.502;8.996;2023-05-14T12:59:15;5.97;;;3.60;;
72524;SDS011;60547;48.502;8.996;2023-05-14T13:01:40;5.10;;;3.65;;
72524;SDS011;60547;48.502;8.996;2023-05-14T13:04:08;6.55;;;3.95;;
72524;SDS011;60547;48.502;8.996;2023-05-14T13:06:37;6.55;;;3.80;;
72524;SDS011;60547;48.502;8.996;2023-05-14T13:09:03;6.05;;;3.90;;
72524;SDS011;60547;48.502;8.996;2023-05-14T13:11:30;8.57;;;3.97;;
72524;SDS011;60547;48.502;8.996;2023-05-14T13:13:56;5.65;;;3.90;;
72524;SDS011;60547;48.502;8.996;2023-05-14T13:16:24;6.95;;;3.63;;
72524;SDS011;60547;48.502;8.996;2023-05-14T13:18:52;7.03;;;4.45;;
72524;SDS011;60547;48.502;8.996;2023-05-14T13:21:17;6.22;;;4.05;;
72524;SDS011;60547;48.502;8.996;2023-05-14T13:23:43;11.02;;;4.15;;
72524;SDS011;60547;48.502;8.996;2023-05-14T13:26:09;8.15;;;4.10;;
72524;SDS011;60547;48.502;8.996;2023-05-14T13:28:35;9.52;;;4.03;;
72524;SDS011;60547;48.502;8.996;2023-05-14T13:31:08;5.97;;;3.90;;
72524;SDS011;60547;48.502;8.996;2023-05-14T13:33:40;6.00;;;4.00;;
72524;SDS011;60547;48.502;8.996;2023-05-14T13:36:07;6.35;;;3.60;;
72524;SDS011;60547;48.502;8.996;2023-05-14T13:38:33;6.00;;;3.75;;
72524;SDS011;60547;48.502;8.996;2023-05-14T13:40:59;7.13;;;3.97;;
72524;SDS011;60547;48.502;8.996;2023-05-14T13:43:32;6.45;;;3.80;;
72524;SDS011;60547;48.502;8.996;2023-05-14T13:45:59;5.88;;;3.70;;
72524;SDS011;60547;48.502;8.996;2023-05-14T13:48:25;5.53;;;3.90;;
72524;SDS011;60547;48.502;8.996;2023-05-14T13:50:52;6.93;;;4.72;;
72524;SDS011;60547;48.502;8.996;2023-05-14T13:53:18;5.75;;;3.92;;
72524;SDS011;60547;48.502;8.996;2023-05-14T13:55:44;5.90;;;4.07;;
72524;SDS011;60547;48.502;8.996;2023-05-14T13:58:10;6.40;;;3.97;;
72524;SDS011;60547;48.502;8.996;2023-05-14T14:00:36;6.90;;;4.07;;
72524;SDS011;60547;48.502;8.996;2023-05-14T14:03:02;6.05;;;3.70;;
72524;SDS011;60547;48.502;8.996;2023-05-14T14:05:28;6.70;;;4.22;;
72524;SDS011;60547;48.502;8.996;2023-05-14T14:07:54;7.88;;;4.05;;
72524;SDS011;60547;48.502;8.996;2023-05-14T14:10:20;7.15;;;4.30;;
72524;SDS011;60547;48.502;8.996;2023-05-14T14:12:46;7.70;;;4.40;;
72524;SDS011;60547;48.502;8.996;2023-05-14T14:15:12;7.15;;;4.55;;
72524;SDS011;60547;48.502;8.996;2023-05-14T14:17:38;8.15;;;4.30;;
72524;SDS011;60547;48.502;8.996;2023-05-14T14:20:08;6.40;;;4.30;;
72524;SDS011;60547;48.502;8.996;2023-05-14T14:22:34;7.38;;;4.50;;
72524;SDS011;60547;48.502;8.996;2023-05-14T14:25:00;8.07;;;4.65;;
72524;SDS011;60547;48.502;8.996;2023-05-14T14:27:26;7.75;;;4.78;;
72524;SDS011;60547;48.502;8.996;2023-05-14T14:29:51;9.38;;;5.13;;
72524;SDS011;60547;48.502;8.996;2023-05-14T14:32:17;7.32;;;4.32;;
72524;SDS011;60547;48.502;8.996;2023-05-14T14:34:42;9.13;;;5.47;;
72524;SDS011;60547;48.502;8.996;2023-05-14T14:37:08;7.65;;;5.05;;
72524;SDS011;60547;48.502;8.996;2023-05-14T14:39:33;10.27;;;4.85;;
72524;SDS011;60547;48.502;8.996;2023-05-14T14:41:59;8.18;;;5.47;;
72524;SDS011;60547;48.502;8.996;2023-05-14T14:44:25;6.93;;;4.38;;
72524;SDS011;60547;48.502;8.996;2023-05-14T14:46:50;8.07;;;4.43;;
72524;SDS011;60547;48.502;8.996;2023-05-14T14:49:16;6.90;;;4.25;;
72524;SDS011;60547;48.502;8.996;2023-05-14T14:51:41;8.05;;;4.60;;
72524;SDS011;60547;48.502;8.996;2023-05-14T14:54:07;6.47;;;4.50;;